Escanaba, MI (49829)

9:05 AM EDT on August 24, 2016 (GMT -0400)
Hurley Marine Lake Side Weather | | Change Station

Elev 607 ft 45.73 °N, 87.06 °W | Updated 1 second ago

Light Rain
Light Rain
69.2 °F
Feels Like 69.2 °F
N
3.0
Wind Variable Wind from SE
Gusts 21.0 mph

Today
High -- | Low -- °F
--% Chance of Precip.
Yesterday
High -- | Low -- °F
Precip. -- in
Pressure 29.92 in
Visibility 7.0 miles
Clouds Mostly Cloudy 400 ft
Overcast 6000 ft
Dew Point 67 °F
Humidity 94%
Rainfall 0.04 in
Snow Depth Not available.
7:00 AM 8:40 PM
Waning Gibbous, 57% visible
METAR KESC 241256Z AUTO 16008KT 7SM -RA BKN004 OVC060 21/20 A2987 RMK AO2 SLP132 P0004 T02060200
Pressure 29.92 in
Visibility 7.0 miles
Clouds Mostly Cloudy 400 ft
Overcast 6000 ft
Dew Point 67 °F
Humidity 94%
Rainfall 0.04 in
Snow Depth Not available.
7:00 AM 8:40 PM
Waning Gibbous, 57% visible
METAR KESC 241256Z AUTO 16008KT 7SM -RA BKN004 OVC060 21/20 A2987 RMK AO2 SLP132 P0004 T02060200

10-Day Weather Forecast

Almanac

Astronomy

Aug. 24, 2016 Rise Set
Actual Time
Civil Twilight
Nautical Twilight
Astronomical Twilight
Moon
Length of Visible Light
Length of Day
Tomorrow will be .
, % of the Moon is Illuminated

Today's Extremes

State Highs State Lows

Community

WunderPhotos

Upload Photos

1,934,586 photos uploaded!

WunderBlog® & News

Nearby

Air Quality

  Air Quality AQ Index Pollutant
Not available.

Snow Depth

Station Depth Elevation

Earthquake Activity

City Distance Mag. Time & Date
Minimum magnitude displayed is 2.5.

Coastal Water Temperatures

Place Temperature

Stations

Nearby Weather Stations

Station Location Temp. Windchill Dew Point Humidity Wind Precip. Elev Updated Type
                   

Watches & Warnings

There are currently no watches in effect.